Hauptseite
METAR-TAF:

METAR-TAF

Flughäfen :

Tschita, Russland

Flughafen Kadala

Breite: 52-05N, Länge: 113-29E, Höhe: 685 m

Beobachtung

Neuester Wetterbericht von vor 18 Minuten, um 15:30 UTC
Wind 14 kt aus Nordwest
Temperatur 27°C
Luftfeuchtigkeit 37%
Luftdruck 1004 hPa
Sichtweite 10 km oder mehr

METAR: UIAA 271530Z 31007MPS 9999 NSC 27/11 Q1004 R29/CLRD70 NOSIG RMK QFE695/0926

Zeit: 00:48 (15:48 UTC)

Prognose

Neuester Wetterbericht von vor 1 Stunde und 48 Minuten, um 14:00 UTC
Gültige Prognose vom 27 um 15 UTC bis 28 um 15 UTC
Wind 10 kt aus Nordwest
Sichtweite 10 km oder mehr
Aufgelockert bewölkt in der Höhe von 4000 ft, Kumulonimbus.

TAF: UIAA 271400Z 2715/2815 31005MPS 9999 SCT040CB

Wetterbeobachtungen und Prognosen von mehr als 4000 Flughäfen (METAR und TAF Bericht).

Die verfügbaren Stationen werden durch gelbe und rote Markierungen auf der Karte dargestellt.

Führen Sie die Maus auf sie, um den Namen der Station zu sehen.

Darauf klicken, um die Beobachtung von Wetterbeobachtungen und Prognosen zu sehen.

Um die Karte zu ändern : klicken Sie auf den grünen Tasten mit einem schwarzen Kreuz Zum Vergrößern, auf den grünen Button mit einem Gedankenstrich zu verkleinern, oder auf die grünen Pfeile für benachbarte Karten.


METAR-TAF: